sensor_id;sensor_type;location;lat;lon;timestamp;temperature;humidity
3794;DHT22;1912;51.358;12.282;2022-11-15T00:00:28;7.20;1.00
3794;DHT22;1912;51.358;12.282;2022-11-15T00:02:54;7.20;1.00
3794;DHT22;1912;51.358;12.282;2022-11-15T00:05:20;7.10;1.00
3794;DHT22;1912;51.358;12.282;2022-11-15T00:07:46;7.20;1.00
3794;DHT22;1912;51.358;12.282;2022-11-15T00:10:12;7.10;1.00
3794;DHT22;1912;51.358;12.282;2022-11-15T00:12:38;7.20;1.00
3794;DHT22;1912;51.358;12.282;2022-11-15T00:15:04;7.20;1.00
3794;DHT22;1912;51.358;12.282;2022-11-15T00:17:30;7.20;1.00
3794;DHT22;1912;51.358;12.282;2022-11-15T00:19:56;7.20;1.00
3794;DHT22;1912;51.358;12.282;2022-11-15T00:22:22;7.30;1.00
3794;DHT22;1912;51.358;12.282;2022-11-15T00:24:47;7.30;1.00
3794;DHT22;1912;51.358;12.282;2022-11-15T00:27:13;7.30;1.00
3794;DHT22;1912;51.358;12.282;2022-11-15T00:29:39;7.30;1.00
3794;DHT22;1912;51.358;12.282;2022-11-15T00:32:09;7.40;1.00
3794;DHT22;1912;51.358;12.282;2022-11-15T00:34:35;7.30;1.00
3794;DHT22;1912;51.358;12.282;2022-11-15T00:37:01;7.30;1.00
3794;DHT22;1912;51.358;12.282;2022-11-15T00:39:26;7.30;1.00
3794;DHT22;1912;51.358;12.282;2022-11-15T00:41:52;7.30;1.00
3794;DHT22;1912;51.358;12.282;2022-11-15T00:44:18;7.30;1.00
3794;DHT22;1912;51.358;12.282;2022-11-15T00:46:43;7.30;1.00
3794;DHT22;1912;51.358;12.282;2022-11-15T00:49:09;7.40;1.00
3794;DHT22;1912;51.358;12.282;2022-11-15T00:51:35;7.40;1.00
3794;DHT22;1912;51.358;12.282;2022-11-15T00:54:01;7.30;1.00
3794;DHT22;1912;51.358;12.282;2022-11-15T00:56:26;7.40;1.00
3794;DHT22;1912;51.358;12.282;2022-11-15T00:58:52;7.40;1.00
3794;DHT22;1912;51.358;12.282;2022-11-15T01:01:18;7.40;1.00
3794;DHT22;1912;51.358;12.282;2022-11-15T01:03:44;7.40;1.00
3794;DHT22;1912;51.358;12.282;2022-11-15T01:06:10;7.40;1.00
3794;DHT22;1912;51.358;12.282;2022-11-15T01:08:38;7.40;1.00
3794;DHT22;1912;51.358;12.282;2022-11-15T01:11:07;7.40;1.00
3794;DHT22;1912;51.358;12.282;2022-11-15T01:13:36;7.40;1.00
3794;DHT22;1912;51.358;12.282;2022-11-15T01:16:14;7.40;1.00
3794;DHT22;1912;51.358;12.282;2022-11-15T01:18:45;7.40;1.00
3794;DHT22;1912;51.358;12.282;2022-11-15T01:21:13;7.40;1.00
3794;DHT22;1912;51.358;12.282;2022-11-15T01:23:41;7.40;1.00
3794;DHT22;1912;51.358;12.282;2022-11-15T01:26:10;7.40;1.00
3794;DHT22;1912;51.358;12.282;2022-11-15T01:28:40;7.40;1.00
3794;DHT22;1912;51.358;12.282;2022-11-15T01:31:16;7.40;1.00
3794;DHT22;1912;51.358;12.282;2022-11-15T01:33:43;7.40;1.00
3794;DHT22;1912;51.358;12.282;2022-11-15T01:36:18;7.40;1.00
3794;DHT22;1912;51.358;12.282;2022-11-15T01:38:47;7.40;1.00
3794;DHT22;1912;51.358;12.282;2022-11-15T01:41:22;7.50;1.00
3794;DHT22;1912;51.358;12.282;2022-11-15T01:43:53;7.50;1.00
3794;DHT22;1912;51.358;12.282;2022-11-15T01:46:35;7.50;1.00
3794;DHT22;1912;51.358;12.282;2022-11-15T01:49:09;7.50;1.00
3794;DHT22;1912;51.358;12.282;2022-11-15T01:51:37;7.50;1.00
3794;DHT22;1912;51.358;12.282;2022-11-15T01:54:10;7.50;1.00
3794;DHT22;1912;51.358;12.282;2022-11-15T01:56:47;7.50;1.00
3794;DHT22;1912;51.358;12.282;2022-11-15T01:59:16;7.50;1.00
3794;DHT22;1912;51.358;12.282;2022-11-15T02:01:42;7.50;1.00
3794;DHT22;1912;51.358;12.282;2022-11-15T02:04:12;7.50;1.00
3794;DHT22;1912;51.358;12.282;2022-11-15T02:06:41;7.50;1.00
3794;DHT22;1912;51.358;12.282;2022-11-15T02:09:08;7.50;1.00
3794;DHT22;1912;51.358;12.282;2022-11-15T02:11:34;7.50;1.00
3794;DHT22;1912;51.358;12.282;2022-11-15T02:14:01;7.40;1.00
3794;DHT22;1912;51.358;12.282;2022-11-15T02:22:50;7.40;1.00
3794;DHT22;1912;51.358;12.282;2022-11-15T02:31:46;7.40;1.00
3794;DHT22;1912;51.358;12.282;2022-11-15T02:34:35;7.40;1.00
3794;DHT22;1912;51.358;12.282;2022-11-15T02:43:12;7.50;1.00
3794;DHT22;1912;51.358;12.282;2022-11-15T02:46:31;7.50;1.00
3794;DHT22;1912;51.358;12.282;2022-11-15T02:49:17;7.50;1.00
3794;DHT22;1912;51.358;12.282;2022-11-15T02:51:45;7.50;1.00
3794;DHT22;1912;51.358;12.282;2022-11-15T02:54:15;7.60;1.00
3794;DHT22;1912;51.358;12.282;2022-11-15T02:56:44;7.60;1.00
3794;DHT22;1912;51.358;12.282;2022-11-15T03:08:47;7.70;1.00
3794;DHT22;1912;51.358;12.282;2022-11-15T03:11:20;7.70;1.00
3794;DHT22;1912;51.358;12.282;2022-11-15T03:19:46;7.70;1.00
3794;DHT22;1912;51.358;12.282;2022-11-15T03:22:22;7.70;1.00
3794;DHT22;1912;51.358;12.282;2022-11-15T03:24:53;7.70;1.00
3794;DHT22;1912;51.358;12.282;2022-11-15T03:27:23;7.70;1.00
3794;DHT22;1912;51.358;12.282;2022-11-15T03:29:56;7.70;1.00
3794;DHT22;1912;51.358;12.282;2022-11-15T03:32:28;7.70;1.00
3794;DHT22;1912;51.358;12.282;2022-11-15T03:35:09;7.70;1.00
3794;DHT22;1912;51.358;12.282;2022-11-15T03:40:11;7.70;1.00
3794;DHT22;1912;51.358;12.282;2022-11-15T03:42:48;7.70;1.00
3794;DHT22;1912;51.358;12.282;2022-11-15T03:45:29;7.70;1.00
3794;DHT22;1912;51.358;12.282;2022-11-15T03:48:10;7.70;1.00
3794;DHT22;1912;51.358;12.282;2022-11-15T03:50:39;7.70;1.00
3794;DHT22;1912;51.358;12.282;2022-11-15T03:53:05;7.70;1.00
3794;DHT22;1912;51.358;12.282;2022-11-15T03:55:32;7.70;1.00
3794;DHT22;1912;51.358;12.282;2022-11-15T03:57:59;7.70;1.00
3794;DHT22;1912;51.358;12.282;2022-11-15T04:00:26;7.70;1.00
3794;DHT22;1912;51.358;12.282;2022-11-15T04:02:52;7.70;1.00
3794;DHT22;1912;51.358;12.282;2022-11-15T04:05:18;7.70;1.00
3794;DHT22;1912;51.358;12.282;2022-11-15T04:07:44;7.60;1.00
3794;DHT22;1912;51.358;12.282;2022-11-15T04:10:11;7.60;1.00
3794;DHT22;1912;51.358;12.282;2022-11-15T04:12:39;7.60;1.00
3794;DHT22;1912;51.358;12.282;2022-11-15T04:17:55;7.60;1.00
3794;DHT22;1912;51.358;12.282;2022-11-15T04:20:24;7.60;1.00
3794;DHT22;1912;51.358;12.282;2022-11-15T04:23:21;7.60;1.00
3794;DHT22;1912;51.358;12.282;2022-11-15T04:26:15;7.50;1.00
3794;DHT22;1912;51.358;12.282;2022-11-15T04:28:44;7.50;1.00
3794;DHT22;1912;51.358;12.282;2022-11-15T04:31:28;7.50;1.00
3794;DHT22;1912;51.358;12.282;2022-11-15T04:33:54;7.50;1.00
3794;DHT22;1912;51.358;12.282;2022-11-15T04:36:20;7.50;1.00
3794;DHT22;1912;51.358;12.282;2022-11-15T04:39:05;7.50;1.00
3794;DHT22;1912;51.358;12.282;2022-11-15T04:41:31;7.50;1.00
3794;DHT22;1912;51.358;12.282;2022-11-15T04:43:56;7.40;1.00
3794;DHT22;1912;51.358;12.282;2022-11-15T04:46:23;7.40;1.00
3794;DHT22;1912;51.358;12.282;2022-11-15T04:48:49;7.40;1.00
3794;DHT22;1912;51.358;12.282;2022-11-15T04:51:15;7.30;1.00
3794;DHT22;1912;51.358;12.282;2022-11-15T04:53:41;7.30;1.00
3794;DHT22;1912;51.358;12.282;2022-11-15T04:56:07;7.30;1.00
3794;DHT22;1912;51.358;12.282;2022-11-15T04:58:33;7.20;1.00
3794;DHT22;1912;51.358;12.282;2022-11-15T05:01:07;7.20;1.00
3794;DHT22;1912;51.358;12.282;2022-11-15T05:03:34;7.20;1.00
3794;DHT22;1912;51.358;12.282;2022-11-15T05:06:18;7.20;1.00
3794;DHT22;1912;51.358;12.282;2022-11-15T05:08:43;7.20;1.00
3794;DHT22;1912;51.358;12.282;2022-11-15T05:11:09;7.10;1.00
3794;DHT22;1912;51.358;12.282;2022-11-15T05:13:35;7.10;1.00
3794;DHT22;1912;51.358;12.282;2022-11-15T05:16:01;7.10;1.00
3794;DHT22;1912;51.358;12.282;2022-11-15T05:18:26;7.10;1.00
3794;DHT22;1912;51.358;12.282;2022-11-15T05:20:52;7.10;1.00
3794;DHT22;1912;51.358;12.282;2022-11-15T05:23:18;7.10;1.00
3794;DHT22;1912;51.358;12.282;2022-11-15T05:25:43;7.10;1.00
3794;DHT22;1912;51.358;12.282;2022-11-15T05:28:09;7.10;1.00
3794;DHT22;1912;51.358;12.282;2022-11-15T05:30:35;7.10;1.00
3794;DHT22;1912;51.358;12.282;2022-11-15T05:33:00;7.10;1.00
3794;DHT22;1912;51.358;12.282;2022-11-15T05:35:33;7.10;1.00
3794;DHT22;1912;51.358;12.282;2022-11-15T05:38:02;7.10;1.00
3794;DHT22;1912;51.358;12.282;2022-11-15T05:40:29;7.10;1.00
3794;DHT22;1912;51.358;12.282;2022-11-15T05:42:56;7.20;1.00
3794;DHT22;1912;51.358;12.282;2022-11-15T05:45:22;7.20;1.00
3794;DHT22;1912;51.358;12.282;2022-11-15T05:47:49;7.20;1.00
3794;DHT22;1912;51.358;12.282;2022-11-15T05:50:16;7.20;1.00
3794;DHT22;1912;51.358;12.282;2022-11-15T05:52:44;7.20;1.00
3794;DHT22;1912;51.358;12.282;2022-11-15T05:55:11;7.20;1.00
3794;DHT22;1912;51.358;12.282;2022-11-15T05:57:37;7.20;1.00
3794;DHT22;1912;51.358;12.282;2022-11-15T06:00:03;7.20;1.00
3794;DHT22;1912;51.358;12.282;2022-11-15T06:02:30;7.20;1.00
3794;DHT22;1912;51.358;12.282;2022-11-15T06:04:55;7.20;1.00
3794;DHT22;1912;51.358;12.282;2022-11-15T06:07:21;7.10;1.00
3794;DHT22;1912;51.358;12.282;2022-11-15T06:09:47;7.20;1.00
3794;DHT22;1912;51.358;12.282;2022-11-15T06:12:13;7.20;1.00
3794;DHT22;1912;51.358;12.282;2022-11-15T06:14:39;7.20;1.00
3794;DHT22;1912;51.358;12.282;2022-11-15T06:17:04;7.20;1.00
3794;DHT22;1912;51.358;12.282;2022-11-15T06:19:30;7.20;1.00
3794;DHT22;1912;51.358;12.282;2022-11-15T06:21:59;7.20;1.00
3794;DHT22;1912;51.358;12.282;2022-11-15T06:24:25;7.20;1.00
3794;DHT22;1912;51.358;12.282;2022-11-15T06:26:51;7.20;1.00
3794;DHT22;1912;51.358;12.282;2022-11-15T06:29:17;7.20;1.00
3794;DHT22;1912;51.358;12.282;2022-11-15T06:31:42;7.20;1.00
3794;DHT22;1912;51.358;12.282;2022-11-15T06:34:08;7.20;1.00
3794;DHT22;1912;51.358;12.282;2022-11-15T06:36:35;7.20;1.00
3794;DHT22;1912;51.358;12.282;2022-11-15T06:39:04;7.20;1.00
3794;DHT22;1912;51.358;12.282;2022-11-15T06:41:33;7.30;1.00
3794;DHT22;1912;51.358;12.282;2022-11-15T06:43:59;7.30;1.00
3794;DHT22;1912;51.358;12.282;2022-11-15T06:46:25;7.30;1.00
3794;DHT22;1912;51.358;12.282;2022-11-15T06:48:51;7.30;1.00
3794;DHT22;1912;51.358;12.282;2022-11-15T06:51:18;7.30;1.00
3794;DHT22;1912;51.358;12.282;2022-11-15T06:53:43;7.20;1.00
3794;DHT22;1912;51.358;12.282;2022-11-15T06:56:09;7.30;1.00
3794;DHT22;1912;51.358;12.282;2022-11-15T06:58:35;7.30;1.00
3794;DHT22;1912;51.358;12.282;2022-11-15T07:01:10;7.20;1.00
3794;DHT22;1912;51.358;12.282;2022-11-15T07:03:38;7.20;1.00
3794;DHT22;1912;51.358;12.282;2022-11-15T07:06:05;7.20;1.00
3794;DHT22;1912;51.358;12.282;2022-11-15T07:08:32;7.20;1.00
3794;DHT22;1912;51.358;12.282;2022-11-15T07:10:59;7.10;1.00
3794;DHT22;1912;51.358;12.282;2022-11-15T07:13:28;7.10;1.00
3794;DHT22;1912;51.358;12.282;2022-11-15T07:15:55;7.10;1.00
3794;DHT22;1912;51.358;12.282;2022-11-15T07:18:21;7.00;1.00
3794;DHT22;1912;51.358;12.282;2022-11-15T07:20:46;7.00;1.00
3794;DHT22;1912;51.358;12.282;2022-11-15T07:23:12;7.00;1.00
3794;DHT22;1912;51.358;12.282;2022-11-15T07:25:38;7.00;1.00
3794;DHT22;1912;51.358;12.282;2022-11-15T07:28:04;7.00;1.00
3794;DHT22;1912;51.358;12.282;2022-11-15T07:30:29;7.00;1.00
3794;DHT22;1912;51.358;12.282;2022-11-15T07:33:00;7.00;1.00
3794;DHT22;1912;51.358;12.282;2022-11-15T07:35:28;7.10;1.00
3794;DHT22;1912;51.358;12.282;2022-11-15T07:38:01;7.00;1.00
3794;DHT22;1912;51.358;12.282;2022-11-15T07:40:30;7.10;1.00
3794;DHT22;1912;51.358;12.282;2022-11-15T07:43:01;7.30;1.00
3794;DHT22;1912;51.358;12.282;2022-11-15T07:45:28;7.40;1.00
3794;DHT22;1912;51.358;12.282;2022-11-15T07:47:54;7.70;1.00
3794;DHT22;1912;51.358;12.282;2022-11-15T07:50:22;7.90;1.00
3794;DHT22;1912;51.358;12.282;2022-11-15T07:52:56;8.20;1.00
3794;DHT22;1912;51.358;12.282;2022-11-15T07:55:27;8.60;1.00
3794;DHT22;1912;51.358;12.282;2022-11-15T07:58:15;8.90;1.00
3794;DHT22;1912;51.358;12.282;2022-11-15T08:00:40;9.30;1.00
3794;DHT22;1912;51.358;12.282;2022-11-15T08:03:09;9.50;1.00
3794;DHT22;1912;51.358;12.282;2022-11-15T08:05:40;9.80;1.00
3794;DHT22;1912;51.358;12.282;2022-11-15T08:08:07;10.00;1.00
3794;DHT22;1912;51.358;12.282;2022-11-15T08:10:34;10.20;1.00
3794;DHT22;1912;51.358;12.282;2022-11-15T08:13:01;10.40;1.00
3794;DHT22;1912;51.358;12.282;2022-11-15T08:15:33;10.60;1.00
3794;DHT22;1912;51.358;12.282;2022-11-15T08:18:08;10.80;1.00
3794;DHT22;1912;51.358;12.282;2022-11-15T08:20:38;10.90;1.00
3794;DHT22;1912;51.358;12.282;2022-11-15T08:23:04;11.20;1.00
3794;DHT22;1912;51.358;12.282;2022-11-15T08:25:31;11.40;1.00
3794;DHT22;1912;51.358;12.282;2022-11-15T08:28:00;11.60;1.00
3794;DHT22;1912;51.358;12.282;2022-11-15T08:30:28;11.60;1.00
3794;DHT22;1912;51.358;12.282;2022-11-15T08:32:57;11.60;1.00
3794;DHT22;1912;51.358;12.282;2022-11-15T08:35:24;11.90;1.00
3794;DHT22;1912;51.358;12.282;2022-11-15T08:37:51;12.00;1.00
3794;DHT22;1912;51.358;12.282;2022-11-15T08:40:18;12.10;1.00
3794;DHT22;1912;51.358;12.282;2022-11-15T08:42:46;12.20;1.00
3794;DHT22;1912;51.358;12.282;2022-11-15T08:45:12;12.30;1.00
3794;DHT22;1912;51.358;12.282;2022-11-15T08:47:38;12.50;1.00
3794;DHT22;1912;51.358;12.282;2022-11-15T08:50:04;12.60;1.00
3794;DHT22;1912;51.358;12.282;2022-11-15T08:52:30;12.70;1.00
3794;DHT22;1912;51.358;12.282;2022-11-15T08:54:57;12.80;1.00
3794;DHT22;1912;51.358;12.282;2022-11-15T08:57:22;12.90;1.00
3794;DHT22;1912;51.358;12.282;2022-11-15T08:59:48;12.90;1.00
3794;DHT22;1912;51.358;12.282;2022-11-15T09:02:14;13.20;1.00
3794;DHT22;1912;51.358;12.282;2022-11-15T09:04:41;13.30;1.00
3794;DHT22;1912;51.358;12.282;2022-11-15T09:07:09;13.30;1.00
3794;DHT22;1912;51.358;12.282;2022-11-15T09:09:35;13.20;1.00
3794;DHT22;1912;51.358;12.282;2022-11-15T09:12:01;13.30;1.00
3794;DHT22;1912;51.358;12.282;2022-11-15T09:14:27;13.40;1.00
3794;DHT22;1912;51.358;12.282;2022-11-15T09:16:53;13.50;1.00
3794;DHT22;1912;51.358;12.282;2022-11-15T09:19:18;13.50;1.00
3794;DHT22;1912;51.358;12.282;2022-11-15T09:21:44;13.40;1.00
3794;DHT22;1912;51.358;12.282;2022-11-15T09:24:09;13.50;1.00
3794;DHT22;1912;51.358;12.282;2022-11-15T09:26:35;13.50;1.00
3794;DHT22;1912;51.358;12.282;2022-11-15T09:29:01;13.60;1.00
3794;DHT22;1912;51.358;12.282;2022-11-15T09:31:27;13.50;1.00
3794;DHT22;1912;51.358;12.282;2022-11-15T09:33:54;13.50;1.00
3794;DHT22;1912;51.358;12.282;2022-11-15T09:36:20;13.50;1.00
3794;DHT22;1912;51.358;12.282;2022-11-15T09:38:46;13.40;1.00
3794;DHT22;1912;51.358;12.282;2022-11-15T09:43:50;13.40;1.00
3794;DHT22;1912;51.358;12.282;2022-11-15T09:49:32;13.40;1.00
3794;DHT22;1912;51.358;12.282;2022-11-15T09:51:59;13.50;1.00
3794;DHT22;1912;51.358;12.282;2022-11-15T09:54:31;13.50;1.00
3794;DHT22;1912;51.358;12.282;2022-11-15T09:57:13;13.50;1.00
3794;DHT22;1912;51.358;12.282;2022-11-15T10:05:43;13.50;1.00
3794;DHT22;1912;51.358;12.282;2022-11-15T10:10:45;13.50;1.00
3794;DHT22;1912;51.358;12.282;2022-11-15T10:19:23;13.60;1.00
3794;DHT22;1912;51.358;12.282;2022-11-15T10:22:06;13.80;1.00
3794;DHT22;1912;51.358;12.282;2022-11-15T10:24:42;13.70;1.00
3794;DHT22;1912;51.358;12.282;2022-11-15T10:27:17;13.60;1.00
3794;DHT22;1912;51.358;12.282;2022-11-15T10:29:52;13.60;1.00
3794;DHT22;1912;51.358;12.282;2022-11-15T10:32:21;13.70;1.00
3794;DHT22;1912;51.358;12.282;2022-11-15T10:34:48;13.70;1.00
3794;DHT22;1912;51.358;12.282;2022-11-15T10:37:20;13.80;1.00
3794;DHT22;1912;51.358;12.282;2022-11-15T10:40:23;13.70;1.00
3794;DHT22;1912;51.358;12.282;2022-11-15T10:45:36;13.70;1.00
3794;DHT22;1912;51.358;12.282;2022-11-15T10:50:37;13.70;1.00
3794;DHT22;1912;51.358;12.282;2022-11-15T10:53:10;13.80;1.00
3794;DHT22;1912;51.358;12.282;2022-11-15T10:55:41;13.80;1.00
3794;DHT22;1912;51.358;12.282;2022-11-15T10:58:32;13.90;1.00
3794;DHT22;1912;51.358;12.282;2022-11-15T11:01:19;13.90;1.00
3794;DHT22;1912;51.358;12.282;2022-11-15T11:04:07;13.80;1.00
3794;DHT22;1912;51.358;12.282;2022-11-15T11:06:49;13.90;1.00
3794;DHT22;1912;51.358;12.282;2022-11-15T11:12:05;14.00;1.00
3794;DHT22;1912;51.358;12.282;2022-11-15T11:14:36;14.00;1.00
3794;DHT22;1912;51.358;12.282;2022-11-15T11:17:15;14.00;1.00
3794;DHT22;1912;51.358;12.282;2022-11-15T11:34:59;14.20;1.00
3794;DHT22;1912;51.358;12.282;2022-11-15T11:38:04;14.20;1.00
3794;DHT22;1912;51.358;12.282;2022-11-15T11:41:10;14.30;1.00
3794;DHT22;1912;51.358;12.282;2022-11-15T11:47:14;14.40;1.00
3794;DHT22;1912;51.358;12.282;2022-11-15T11:49:57;14.40;1.00
3794;DHT22;1912;51.358;12.282;2022-11-15T11:52:35;14.50;1.00
3794;DHT22;1912;51.358;12.282;2022-11-15T11:55:16;14.50;1.00
3794;DHT22;1912;51.358;12.282;2022-11-15T11:58:13;14.50;1.00
3794;DHT22;1912;51.358;12.282;2022-11-15T12:00:49;14.60;1.00
3794;DHT22;1912;51.358;12.282;2022-11-15T12:03:40;14.60;1.00
3794;DHT22;1912;51.358;12.282;2022-11-15T12:06:45;14.70;1.00
3794;DHT22;1912;51.358;12.282;2022-11-15T12:09:16;14.70;1.00
3794;DHT22;1912;51.358;12.282;2022-11-15T12:14:44;14.70;1.00
3794;DHT22;1912;51.358;12.282;2022-11-15T12:17:12;14.70;1.00
3794;DHT22;1912;51.358;12.282;2022-11-15T12:19:39;14.80;1.00
3794;DHT22;1912;51.358;12.282;2022-11-15T12:22:19;14.80;1.00
3794;DHT22;1912;51.358;12.282;2022-11-15T12:24:58;14.90;1.00
3794;DHT22;1912;51.358;12.282;2022-11-15T12:27:36;14.90;1.00
3794;DHT22;1912;51.358;12.282;2022-11-15T12:30:23;14.90;1.00
3794;DHT22;1912;51.358;12.282;2022-11-15T12:32:55;15.00;1.00
3794;DHT22;1912;51.358;12.282;2022-11-15T12:35:38;15.00;1.00
3794;DHT22;1912;51.358;12.282;2022-11-15T12:38:13;15.10;1.00
3794;DHT22;1912;51.358;12.282;2022-11-15T12:41:16;15.20;1.00
3794;DHT22;1912;51.358;12.282;2022-11-15T12:43:44;15.30;1.00
3794;DHT22;1912;51.358;12.282;2022-11-15T12:49:07;15.40;1.00
3794;DHT22;1912;51.358;12.282;2022-11-15T13:02:24;15.50;1.00
3794;DHT22;1912;51.358;12.282;2022-11-15T13:12:57;15.60;1.00
3794;DHT22;1912;51.358;12.282;2022-11-15T13:15:53;15.50;1.00
3794;DHT22;1912;51.358;12.282;2022-11-15T13:18:31;15.50;1.00
3794;DHT22;1912;51.358;12.282;2022-11-15T13:20:58;15.60;1.00
3794;DHT22;1912;51.358;12.282;2022-11-15T13:23:24;15.60;1.00
3794;DHT22;1912;51.358;12.282;2022-11-15T13:31:28;15.60;1.00
3794;DHT22;1912;51.358;12.282;2022-11-15T13:33:59;15.60;1.00
3794;DHT22;1912;51.358;12.282;2022-11-15T13:36:33;15.50;1.00
3794;DHT22;1912;51.358;12.282;2022-11-15T13:39:05;15.40;1.00
3794;DHT22;1912;51.358;12.282;2022-11-15T13:41:34;15.40;1.00
3794;DHT22;1912;51.358;12.282;2022-11-15T13:44:02;15.30;1.00
3794;DHT22;1912;51.358;12.282;2022-11-15T13:46:30;15.20;1.00
3794;DHT22;1912;51.358;12.282;2022-11-15T13:49:01;15.20;1.00
3794;DHT22;1912;51.358;12.282;2022-11-15T13:56:39;14.90;1.00
3794;DHT22;1912;51.358;12.282;2022-11-15T13:59:19;14.90;1.00
3794;DHT22;1912;51.358;12.282;2022-11-15T14:01:57;15.00;1.00
3794;DHT22;1912;51.358;12.282;2022-11-15T14:04:27;15.10;1.00
3794;DHT22;1912;51.358;12.282;2022-11-15T14:07:01;15.10;1.00
3794;DHT22;1912;51.358;12.282;2022-11-15T14:12:19;15.00;1.00
3794;DHT22;1912;51.358;12.282;2022-11-15T14:14:47;15.00;1.00
3794;DHT22;1912;51.358;12.282;2022-11-15T14:19:53;14.90;1.00
3794;DHT22;1912;51.358;12.282;2022-11-15T14:22:23;14.80;1.00
3794;DHT22;1912;51.358;12.282;2022-11-15T14:27:39;14.70;1.00
3794;DHT22;1912;51.358;12.282;2022-11-15T14:30:06;14.60;1.00
3794;DHT22;1912;51.358;12.282;2022-11-15T14:32:49;14.60;1.00
3794;DHT22;1912;51.358;12.282;2022-11-15T14:35:18;14.60;1.00
3794;DHT22;1912;51.358;12.282;2022-11-15T14:37:45;14.60;1.00
3794;DHT22;1912;51.358;12.282;2022-11-15T14:40:14;14.50;1.00
3794;DHT22;1912;51.358;12.282;2022-11-15T14:42:43;14.40;1.00
3794;DHT22;1912;51.358;12.282;2022-11-15T14:45:19;14.40;1.00
3794;DHT22;1912;51.358;12.282;2022-11-15T14:47:46;14.40;1.00
3794;DHT22;1912;51.358;12.282;2022-11-15T14:50:19;14.30;1.00
3794;DHT22;1912;51.358;12.282;2022-11-15T14:52:46;14.30;1.00
3794;DHT22;1912;51.358;12.282;2022-11-15T14:55:26;14.20;1.00
3794;DHT22;1912;51.358;12.282;2022-11-15T14:57:58;14.10;1.00
3794;DHT22;1912;51.358;12.282;2022-11-15T15:00:24;14.10;1.00
3794;DHT22;1912;51.358;12.282;2022-11-15T15:02:53;14.10;1.00
3794;DHT22;1912;51.358;12.282;2022-11-15T15:05:22;14.00;1.00
3794;DHT22;1912;51.358;12.282;2022-11-15T15:07:53;13.90;1.00
3794;DHT22;1912;51.358;12.282;2022-11-15T15:10:19;13.80;1.00
3794;DHT22;1912;51.358;12.282;2022-11-15T15:12:45;13.80;1.00
3794;DHT22;1912;51.358;12.282;2022-11-15T15:15:24;13.70;1.00
3794;DHT22;1912;51.358;12.282;2022-11-15T15:17:51;13.60;1.00
3794;DHT22;1912;51.358;12.282;2022-11-15T15:20:17;13.50;1.00
3794;DHT22;1912;51.358;12.282;2022-11-15T15:22:43;13.40;1.00
3794;DHT22;1912;51.358;12.282;2022-11-15T15:25:23;13.30;1.00
3794;DHT22;1912;51.358;12.282;2022-11-15T15:27:53;13.20;1.00
3794;DHT22;1912;51.358;12.282;2022-11-15T15:30:19;13.10;1.00
3794;DHT22;1912;51.358;12.282;2022-11-15T15:32:45;13.00;1.00
3794;DHT22;1912;51.358;12.282;2022-11-15T15:35:15;13.00;1.00
3794;DHT22;1912;51.358;12.282;2022-11-15T15:37:43;12.90;1.00
3794;DHT22;1912;51.358;12.282;2022-11-15T15:40:21;12.80;1.00
3794;DHT22;1912;51.358;12.282;2022-11-15T15:42:48;12.70;1.00
3794;DHT22;1912;51.358;12.282;2022-11-15T15:45:15;12.70;1.00
3794;DHT22;1912;51.358;12.282;2022-11-15T15:47:41;12.60;1.00
3794;DHT22;1912;51.358;12.282;2022-11-15T15:50:28;12.60;1.00
3794;DHT22;1912;51.358;12.282;2022-11-15T15:52:58;12.40;1.00
3794;DHT22;1912;51.358;12.282;2022-11-15T15:55:25;12.30;1.00
3794;DHT22;1912;51.358;12.282;2022-11-15T15:57:51;12.20;1.00
3794;DHT22;1912;51.358;12.282;2022-11-15T16:00:18;12.20;1.00
3794;DHT22;1912;51.358;12.282;2022-11-15T16:02:45;12.10;1.00
3794;DHT22;1912;51.358;12.282;2022-11-15T16:05:12;12.00;1.00
3794;DHT22;1912;51.358;12.282;2022-11-15T16:07:37;11.90;1.00
3794;DHT22;1912;51.358;12.282;2022-11-15T16:10:26;11.90;1.00
3794;DHT22;1912;51.358;12.282;2022-11-15T16:13:02;11.70;1.00
3794;DHT22;1912;51.358;12.282;2022-11-15T16:15:30;11.60;1.00
3794;DHT22;1912;51.358;12.282;2022-11-15T16:17:59;11.60;1.00
3794;DHT22;1912;51.358;12.282;2022-11-15T16:23:13;11.30;1.00
3794;DHT22;1912;51.358;12.282;2022-11-15T16:28:28;11.10;1.00
3794;DHT22;1912;51.358;12.282;2022-11-15T16:31:03;11.00;1.00
3794;DHT22;1912;51.358;12.282;2022-11-15T16:33:35;11.00;1.00
3794;DHT22;1912;51.358;12.282;2022-11-15T16:36:02;11.00;1.00
3794;DHT22;1912;51.358;12.282;2022-11-15T16:38:29;11.00;1.00
3794;DHT22;1912;51.358;12.282;2022-11-15T16:40:54;10.90;1.00
3794;DHT22;1912;51.358;12.282;2022-11-15T16:43:20;10.50;1.00
3794;DHT22;1912;51.358;12.282;2022-11-15T16:45:46;10.30;1.00
3794;DHT22;1912;51.358;12.282;2022-11-15T16:48:29;10.30;1.00
3794;DHT22;1912;51.358;12.282;2022-11-15T16:50:56;10.30;1.00
3794;DHT22;1912;51.358;12.282;2022-11-15T16:53:23;10.20;1.00
3794;DHT22;1912;51.358;12.282;2022-11-15T16:55:50;10.20;1.00
3794;DHT22;1912;51.358;12.282;2022-11-15T16:58:16;10.10;1.00
3794;DHT22;1912;51.358;12.282;2022-11-15T17:00:41;10.10;1.00
3794;DHT22;1912;51.358;12.282;2022-11-15T17:03:07;10.10;1.00
3794;DHT22;1912;51.358;12.282;2022-11-15T17:05:33;10.00;1.00
3794;DHT22;1912;51.358;12.282;2022-11-15T17:07:58;10.00;1.00
3794;DHT22;1912;51.358;12.282;2022-11-15T17:10:25;9.90;1.00
3794;DHT22;1912;51.358;12.282;2022-11-15T17:12:52;9.90;1.00
3794;DHT22;1912;51.358;12.282;2022-11-15T17:15:20;9.90;1.00
3794;DHT22;1912;51.358;12.282;2022-11-15T17:17:55;9.80;1.00
3794;DHT22;1912;51.358;12.282;2022-11-15T17:20:23;9.70;1.00
3794;DHT22;1912;51.358;12.282;2022-11-15T17:22:49;9.60;1.00
3794;DHT22;1912;51.358;12.282;2022-11-15T17:25:15;9.60;1.00
3794;DHT22;1912;51.358;12.282;2022-11-15T17:27:41;9.50;1.00
3794;DHT22;1912;51.358;12.282;2022-11-15T17:30:09;9.40;1.00
3794;DHT22;1912;51.358;12.282;2022-11-15T17:32:37;9.30;1.00
3794;DHT22;1912;51.358;12.282;2022-11-15T17:35:03;9.30;1.00
3794;DHT22;1912;51.358;12.282;2022-11-15T17:37:32;9.30;1.00
3794;DHT22;1912;51.358;12.282;2022-11-15T17:39:58;9.30;1.00
3794;DHT22;1912;51.358;12.282;2022-11-15T17:42:24;9.20;1.00
3794;DHT22;1912;51.358;12.282;2022-11-15T17:44:50;9.20;1.00
3794;DHT22;1912;51.358;12.282;2022-11-15T17:47:15;9.10;1.00
3794;DHT22;1912;51.358;12.282;2022-11-15T17:49:41;8.90;1.00
3794;DHT22;1912;51.358;12.282;2022-11-15T17:52:07;8.70;1.00
3794;DHT22;1912;51.358;12.282;2022-11-15T17:54:33;8.70;1.00
3794;DHT22;1912;51.358;12.282;2022-11-15T17:56:58;8.70;1.00
3794;DHT22;1912;51.358;12.282;2022-11-15T17:59:24;8.70;1.00
3794;DHT22;1912;51.358;12.282;2022-11-15T18:01:50;8.60;1.00
3794;DHT22;1912;51.358;12.282;2022-11-15T18:04:18;8.60;1.00
3794;DHT22;1912;51.358;12.282;2022-11-15T18:06:45;8.60;1.00
3794;DHT22;1912;51.358;12.282;2022-11-15T18:09:11;8.60;1.00
3794;DHT22;1912;51.358;12.282;2022-11-15T18:11:39;8.50;1.00
3794;DHT22;1912;51.358;12.282;2022-11-15T18:14:12;8.50;1.00
3794;DHT22;1912;51.358;12.282;2022-11-15T18:16:39;8.50;1.00
3794;DHT22;1912;51.358;12.282;2022-11-15T18:19:06;8.50;1.00
3794;DHT22;1912;51.358;12.282;2022-11-15T18:21:43;8.40;1.00
3794;DHT22;1912;51.358;12.282;2022-11-15T18:24:33;8.30;1.00
3794;DHT22;1912;51.358;12.282;2022-11-15T18:27:01;8.30;1.00
3794;DHT22;1912;51.358;12.282;2022-11-15T18:29:27;8.30;1.00
3794;DHT22;1912;51.358;12.282;2022-11-15T18:31:53;8.30;1.00
3794;DHT22;1912;51.358;12.282;2022-11-15T18:34:21;8.20;1.00
3794;DHT22;1912;51.358;12.282;2022-11-15T18:36:52;8.30;1.00
3794;DHT22;1912;51.358;12.282;2022-11-15T18:39:18;8.40;1.00
3794;DHT22;1912;51.358;12.282;2022-11-15T18:41:44;8.40;1.00
3794;DHT22;1912;51.358;12.282;2022-11-15T18:44:14;8.50;1.00